Time;durP1;ratioP1;P1;durP2;ratioP2;P2;SDS_P1;SDS_P2;PMS_P1;PMS_P2;Temp;Humidity;BMP_temperature;BMP_pressure;BME280_temperature;BME280_humidity;BME280_pressure;Samples;Min_cycle;Max_cycle;Signal;HPM_P1;HPM_P2
2024/02/13 00:00:33;;;;;;;;;;;22.80;43.10;;;;;;5055568;28;20364;-60
2024/02/13 00:02:59;;;;;;;;;;;22.80;43.10;;;;;;5073028;28;20328;-59
2024/02/13 00:05:27;;;;;;;;;;;22.80;43.10;;;;;;5072937;28;19924;-59
2024/02/13 00:07:54;;;;;;;;;;;22.80;43.20;;;;;;5072574;28;19928;-59
2024/02/13 00:10:21;;;;;;;;;;;22.80;43.20;;;;;;5072877;28;20389;-59
2024/02/13 00:12:48;;;;;;;;;;;22.80;43.20;;;;;;5072773;28;19925;-59
2024/02/13 00:15:19;;;;;;;;;;;22.80;43.20;;;;;;5073033;28;19932;-59
2024/02/13 00:17:47;;;;;;;;;;;22.70;43.20;;;;;;5073110;28;19928;-59
2024/02/13 00:20:14;;;;;;;;;;;22.70;43.10;;;;;;5072675;28;19931;-59
2024/02/13 00:22:42;;;;;;;;;;;22.70;43.10;;;;;;5058237;28;19924;-63
2024/02/13 00:25:09;;;;;;;;;;;22.80;43.10;;;;;;5080192;28;19931;-63
2024/02/13 00:27:36;;;;;;;;;;;22.70;43.10;;;;;;5080435;28;20281;-63
2024/02/13 00:30:04;;;;;;;;;;;22.80;43.10;;;;;;5080003;28;20423;-63
2024/02/13 00:32:31;;;;;;;;;;;22.70;43.10;;;;;;5080340;28;19925;-63
2024/02/13 00:34:59;;;;;;;;;;;22.80;43.10;;;;;;5062299;28;19947;-64
2024/02/13 00:37:26;;;;;;;;;;;22.70;43.10;;;;;;5080080;28;19958;-63
2024/02/13 00:39:54;;;;;;;;;;;22.80;43.10;;;;;;5079789;28;19974;-63
2024/02/13 00:42:21;;;;;;;;;;;22.70;43.00;;;;;;5079659;28;19931;-63
2024/02/13 00:44:49;;;;;;;;;;;22.80;43.00;;;;;;5079894;28;19932;-63
2024/02/13 00:47:17;;;;;;;;;;;22.80;43.00;;;;;;5079606;28;19978;-63
2024/02/13 00:49:45;;;;;;;;;;;22.80;42.90;;;;;;5079948;28;19932;-64
2024/02/13 00:52:12;;;;;;;;;;;22.80;42.90;;;;;;5079719;28;20027;-64
2024/02/13 00:54:39;;;;;;;;;;;22.80;42.90;;;;;;5079673;28;19936;-63
2024/02/13 00:57:08;;;;;;;;;;;22.80;42.90;;;;;;5079658;28;19986;-64
2024/02/13 00:59:35;;;;;;;;;;;22.80;42.90;;;;;;5061288;28;19925;-64
2024/02/13 01:02:03;;;;;;;;;;;22.70;42.90;;;;;;5079418;28;19924;-64
2024/02/13 01:04:30;;;;;;;;;;;22.70;42.90;;;;;;5079451;28;19929;-64
2024/02/13 01:06:57;;;;;;;;;;;22.70;42.90;;;;;;5079618;28;19925;-63
2024/02/13 01:09:25;;;;;;;;;;;22.70;42.90;;;;;;5079189;28;19947;-63
2024/02/13 01:11:52;;;;;;;;;;;22.70;43.00;;;;;;5061748;28;19932;-63
2024/02/13 01:14:19;;;;;;;;;;;22.70;43.00;;;;;;5078983;28;19935;-64
2024/02/13 01:16:46;;;;;;;;;;;22.70;43.10;;;;;;5079490;28;20286;-63
2024/02/13 01:19:13;;;;;;;;;;;22.70;43.10;;;;;;5079306;28;19931;-64
2024/02/13 01:21:43;;;;;;;;;;;22.70;43.10;;;;;;5079245;28;19928;-63
2024/02/13 01:24:10;;;;;;;;;;;22.70;43.10;;;;;;5079061;28;19924;-63
2024/02/13 01:26:37;;;;;;;;;;;22.60;43.00;;;;;;5079433;28;19939;-63
2024/02/13 01:29:04;;;;;;;;;;;22.70;43.00;;;;;;5079230;28;19928;-64
2024/02/13 01:31:35;;;;;;;;;;;22.60;43.00;;;;;;5078556;28;19928;-63
2024/02/13 01:34:01;;;;;;;;;;;22.60;43.00;;;;;;5078621;28;20305;-64
2024/02/13 01:36:29;;;;;;;;;;;22.60;43.00;;;;;;5079249;28;19925;-64
2024/02/13 01:38:58;;;;;;;;;;;22.60;43.00;;;;;;5079048;28;19967;-63
2024/02/13 01:41:25;;;;;;;;;;;22.60;43.00;;;;;;5078988;28;19956;-63
2024/02/13 01:43:52;;;;;;;;;;;22.70;43.00;;;;;;5078716;28;19928;-63
2024/02/13 01:46:20;;;;;;;;;;;22.70;43.00;;;;;;5079246;28;20281;-63
2024/02/13 01:48:47;;;;;;;;;;;22.60;43.00;;;;;;5078375;28;19924;-63
2024/02/13 01:51:15;;;;;;;;;;;22.70;43.00;;;;;;5079029;28;19924;-63
2024/02/13 01:53:42;;;;;;;;;;;22.60;42.90;;;;;;5078274;28;19936;-63
2024/02/13 01:56:10;;;;;;;;;;;22.70;43.00;;;;;;5078834;28;19931;-64
2024/02/13 01:58:38;;;;;;;;;;;22.70;42.90;;;;;;5078317;28;19935;-63
2024/02/13 02:01:06;;;;;;;;;;;22.70;42.80;;;;;;5061135;28;19931;-62
2024/02/13 02:03:34;;;;;;;;;;;22.70;42.80;;;;;;5077966;28;20023;-63
2024/02/13 02:06:05;;;;;;;;;;;22.70;42.80;;;;;;5078226;28;19925;-63
2024/02/13 02:08:33;;;;;;;;;;;22.70;42.80;;;;;;5078436;28;19960;-64
2024/02/13 02:11:00;;;;;;;;;;;22.70;42.80;;;;;;5078280;28;20263;-63
2024/02/13 02:13:28;;;;;;;;;;;22.70;42.80;;;;;;5077609;28;20038;-63
2024/02/13 02:15:58;;;;;;;;;;;22.60;42.80;;;;;;5076800;28;19974;-63
2024/02/13 02:18:25;;;;;;;;;;;22.60;42.80;;;;;;5075255;28;19993;-63
2024/02/13 02:20:53;;;;;;;;;;;22.60;42.80;;;;;;5075629;28;20389;-64
2024/02/13 02:23:22;;;;;;;;;;;22.60;42.90;;;;;;5075904;28;19933;-60
2024/02/13 02:25:50;;;;;;;;;;;22.60;42.90;;;;;;5074881;28;20365;-59
2024/02/13 02:28:18;;;;;;;;;;;22.60;42.90;;;;;;5074258;28;20003;-59
2024/02/13 02:30:45;;;;;;;;;;;22.60;42.90;;;;;;5074871;28;20338;-59
2024/02/13 02:33:12;;;;;;;;;;;22.60;42.90;;;;;;5074481;28;19948;-59
2024/02/13 02:35:41;;;;;;;;;;;22.60;42.90;;;;;;5074539;28;20303;-59
2024/02/13 02:38:13;;;;;;;;;;;22.60;42.90;;;;;;5056184;28;19924;-59
2024/02/13 02:40:41;;;;;;;;;;;22.60;42.90;;;;;;5074332;28;19928;-59
2024/02/13 02:43:08;;;;;;;;;;;22.50;42.80;;;;;;5073680;28;20016;-59
2024/02/13 02:45:35;;;;;;;;;;;22.50;42.80;;;;;;5053577;28;19931;-59
2024/02/13 02:48:02;;;;;;;;;;;22.50;42.80;;;;;;5054118;28;20359;-59
2024/02/13 02:50:29;;;;;;;;;;;22.50;42.80;;;;;;5054438;28;20023;-59
2024/02/13 02:52:56;;;;;;;;;;;22.60;42.90;;;;;;5054027;28;20046;-59
2024/02/13 02:55:23;;;;;;;;;;;22.50;42.80;;;;;;5053764;28;19932;-59
2024/02/13 02:57:53;;;;;;;;;;;22.60;42.90;;;;;;5053794;28;20408;-59
2024/02/13 03:00:20;;;;;;;;;;;22.60;42.90;;;;;;5053956;28;19979;-59
2024/02/13 03:02:47;;;;;;;;;;;22.60;42.90;;;;;;5054005;28;19925;-59
2024/02/13 03:05:16;;;;;;;;;;;22.60;42.90;;;;;;5053341;28;19925;-59
2024/02/13 03:07:46;;;;;;;;;;;22.50;42.80;;;;;;5053914;28;19972;-59
2024/02/13 03:10:13;;;;;;;;;;;22.60;42.90;;;;;;5053523;28;19925;-59
2024/02/13 03:12:40;;;;;;;;;;;22.60;42.80;;;;;;5054004;28;20007;-59
2024/02/13 03:15:08;;;;;;;;;;;22.60;42.70;;;;;;5053830;28;19960;-59
2024/02/13 03:17:37;;;;;;;;;;;22.60;42.70;;;;;;5057510;28;20404;-59
2024/02/13 03:20:07;;;;;;;;;;;22.60;42.70;;;;;;5073617;28;20014;-59
2024/02/13 03:22:37;;;;;;;;;;;22.60;42.70;;;;;;5073710;28;20006;-59
2024/02/13 03:25:07;;;;;;;;;;;22.60;42.70;;;;;;5073397;28;19928;-59
2024/02/13 03:27:34;;;;;;;;;;;22.60;42.80;;;;;;5073165;28;19929;-59
2024/02/13 03:30:02;;;;;;;;;;;22.50;42.70;;;;;;5073495;28;20299;-59
2024/02/13 03:32:29;;;;;;;;;;;22.50;42.70;;;;;;5073222;28;20438;-59
2024/02/13 03:34:56;;;;;;;;;;;22.50;42.70;;;;;;5073534;28;19967;-59
2024/02/13 03:37:23;;;;;;;;;;;22.50;42.80;;;;;;5073007;28;19935;-59
2024/02/13 03:39:50;;;;;;;;;;;22.50;42.80;;;;;;5073243;28;20476;-59
2024/02/13 03:42:17;;;;;;;;;;;22.50;43.40;;;;;;5073339;28;20297;-59
2024/02/13 03:44:45;;;;;;;;;;;22.50;42.80;;;;;;5072099;28;20020;-59
2024/02/13 03:47:12;;;;;;;;;;;22.50;42.80;;;;;;5073314;28;19932;-59
2024/02/13 03:49:40;;;;;;;;;;;22.50;42.80;;;;;;5072825;28;19933;-59
2024/02/13 03:52:09;;;;;;;;;;;22.50;42.80;;;;;;5073446;28;19924;-59
2024/02/13 03:54:37;;;;;;;;;;;22.50;42.80;;;;;;5073258;28;19978;-59
2024/02/13 03:57:04;;;;;;;;;;;22.50;42.80;;;;;;5072932;28;19931;-59
2024/02/13 03:59:31;;;;;;;;;;;22.40;42.80;;;;;;5072827;28;20023;-59
2024/02/13 04:01:58;;;;;;;;;;;22.40;42.80;;;;;;5072413;28;19931;-59
2024/02/13 04:04:25;;;;;;;;;;;22.40;42.80;;;;;;5072682;28;19924;-59
2024/02/13 04:06:52;;;;;;;;;;;22.50;42.80;;;;;;5073294;28;19924;-59
2024/02/13 04:09:20;;;;;;;;;;;22.40;42.80;;;;;;5072529;28;20690;-59
2024/02/13 04:11:47;;;;;;;;;;;22.50;42.80;;;;;;5073140;28;19928;-59
2024/02/13 04:14:14;;;;;;;;;;;22.40;42.80;;;;;;5072933;28;20007;-59
2024/02/13 04:16:41;;;;;;;;;;;22.40;42.80;;;;;;5072929;28;20086;-59
2024/02/13 04:19:08;;;;;;;;;;;22.50;42.80;;;;;;5072687;28;20011;-59
2024/02/13 04:21:37;;;;;;;;;;;22.50;42.80;;;;;;5072491;28;20023;-59
2024/02/13 04:24:06;;;;;;;;;;;22.50;42.70;;;;;;5072349;28;19924;-59
2024/02/13 04:26:40;;;;;;;;;;;22.50;42.70;;;;;;5073112;28;19924;-59
2024/02/13 04:29:08;;;;;;;;;;;22.50;42.70;;;;;;5072313;28;19931;-59
2024/02/13 04:31:38;;;;;;;;;;;22.50;42.60;;;;;;5072871;28;19925;-59
2024/02/13 04:34:08;;;;;;;;;;;22.50;42.60;;;;;;5054540;28;19931;-59
2024/02/13 04:36:39;;;;;;;;;;;22.50;42.60;;;;;;5072597;28;20388;-59
2024/02/13 04:39:07;;;;;;;;;;;22.50;42.50;;;;;;5072727;28;19925;-59
2024/02/13 04:41:34;;;;;;;;;;;22.50;42.30;;;;;;5072752;28;19951;-59
2024/02/13 04:44:02;;;;;;;;;;;22.50;42.10;;;;;;5070251;28;19995;-59
2024/02/13 04:46:29;;;;;;;;;;;22.50;41.90;;;;;;5071736;28;19971;-59
2024/02/13 04:48:57;;;;;;;;;;;22.50;41.70;;;;;;5072421;28;19925;-59
2024/02/13 04:51:24;;;;;;;;;;;22.50;41.60;;;;;;5072247;28;19925;-59
2024/02/13 04:53:51;;;;;;;;;;;22.50;41.50;;;;;;5064775;28;20023;-59
2024/02/13 04:56:18;;;;;;;;;;;22.50;41.30;;;;;;5072753;28;20021;-59
2024/02/13 04:58:45;;;;;;;;;;;22.50;41.30;;;;;;5072496;28;20446;-59
2024/02/13 05:01:14;;;;;;;;;;;22.50;41.20;;;;;;5072242;28;19928;-59
2024/02/13 05:09:15;;;;;;;;;;;22.50;41.10;;;;;;5073275;28;19932;-59
2024/02/13 05:11:42;;;;;;;;;;;22.50;41.00;;;;;;5075924;28;19967;-61
2024/02/13 05:14:10;;;;;;;;;;;22.50;40.90;;;;;;5073676;28;19960;-59
2024/02/13 05:16:38;;;;;;;;;;;22.50;40.90;;;;;;5067496;28;20044;-59
2024/02/13 05:19:06;;;;;;;;;;;22.50;40.80;;;;;;5075111;28;19924;-64
2024/02/13 05:21:37;;;;;;;;;;;22.50;40.70;;;;;;5074825;28;19982;-62
2024/02/13 05:24:04;;;;;;;;;;;22.50;40.70;;;;;;5073579;28;19928;-61
2024/02/13 05:26:31;;;;;;;;;;;22.50;40.80;;;;;;5071150;28;19924;-59
2024/02/13 05:28:58;;;;;;;;;;;22.50;40.80;;;;;;5073974;28;19924;-61
2024/02/13 05:31:26;;;;;;;;;;;22.50;40.70;;;;;;5075369;28;19970;-62
2024/02/13 05:33:54;;;;;;;;;;;22.50;40.70;;;;;;5075702;28;19970;-62
2024/02/13 05:36:21;;;;;;;;;;;22.50;40.60;;;;;;5075209;28;19933;-59
2024/02/13 05:38:50;;;;;;;;;;;22.40;40.60;;;;;;5075427;28;20384;-60
2024/02/13 05:41:17;;;;;;;;;;;22.40;40.50;;;;;;5075113;28;20396;-59
2024/02/13 05:43:44;;;;;;;;;;;22.50;40.50;;;;;;5075359;28;19924;-59
2024/02/13 05:46:11;;;;;;;;;;;22.50;40.50;;;;;;5074872;28;19971;-59
2024/02/13 05:48:40;;;;;;;;;;;22.50;40.50;;;;;;5074847;28;20019;-59
2024/02/13 05:51:11;;;;;;;;;;;22.50;40.40;;;;;;5073853;28;19985;-59
2024/02/13 05:53:41;;;;;;;;;;;22.50;40.40;;;;;;5075036;28;19924;-59
2024/02/13 05:56:12;;;;;;;;;;;22.50;40.30;;;;;;5074211;28;20320;-59
2024/02/13 05:58:52;;;;;;;;;;;22.50;40.20;;;;;;5073903;28;19924;-59
2024/02/13 06:01:19;;;;;;;;;;;22.50;40.20;;;;;;5074401;28;19924;-58
2024/02/13 06:03:46;;;;;;;;;;;22.50;40.20;;;;;;5073975;28;20037;-58
2024/02/13 06:06:13;;;;;;;;;;;22.60;40.20;;;;;;5073756;28;19928;-59
2024/02/13 06:08:40;;;;;;;;;;;22.50;40.10;;;;;;5069850;28;19967;-58
2024/02/13 06:11:07;;;;;;;;;;;22.60;40.10;;;;;;5054713;28;20003;-58
2024/02/13 06:13:35;;;;;;;;;;;22.60;40.00;;;;;;5053586;28;19929;-60
2024/02/13 06:16:02;;;;;;;;;;;22.60;40.00;;;;;;5054274;28;19968;-59
2024/02/13 06:18:29;;;;;;;;;;;22.60;39.90;;;;;;5071192;28;20027;-59
2024/02/13 06:20:56;;;;;;;;;;;22.60;38.30;;;;;;5054915;28;19924;-60
2024/02/13 06:23:24;;;;;;;;;;;22.50;39.40;;;;;;5072820;28;19928;-60
2024/02/13 06:25:51;;;;;;;;;;;22.50;39.80;;;;;;5072670;28;19924;-60
2024/02/13 06:28:18;;;;;;;;;;;22.50;40.00;;;;;;5073351;28;20051;-59
2024/02/13 06:30:45;;;;;;;;;;;22.50;40.10;;;;;;5071520;28;19932;-59
2024/02/13 06:33:12;;;;;;;;;;;22.50;40.20;;;;;;5071588;28;19940;-59
2024/02/13 06:35:41;;;;;;;;;;;22.50;40.30;;;;;;5069179;28;19928;-60
2024/02/13 06:38:08;;;;;;;;;;;22.60;40.30;;;;;;5065814;28;19924;-60
2024/02/13 06:40:35;;;;;;;;;;;22.60;40.30;;;;;;5063366;28;19932;-60
2024/02/13 06:43:03;;;;;;;;;;;22.70;40.40;;;;;;5057153;28;19931;-59
2024/02/13 06:45:30;;;;;;;;;;;22.70;40.80;;;;;;5061891;28;19932;-59
2024/02/13 06:47:58;;;;;;;;;;;22.70;40.10;;;;;;5060247;28;19935;-58
2024/02/13 06:50:25;;;;;;;;;;;22.70;39.90;;;;;;5062781;28;19924;-59
2024/02/13 06:52:55;;;;;;;;;;;22.80;39.80;;;;;;5062634;28;20059;-58
2024/02/13 06:55:23;;;;;;;;;;;22.80;39.70;;;;;;5062305;28;19932;-58
2024/02/13 06:57:50;;;;;;;;;;;22.80;39.60;;;;;;5060481;28;20237;-58
2024/02/13 07:00:18;;;;;;;;;;;22.80;39.60;;;;;;5062727;28;19932;-59
2024/02/13 07:02:48;;;;;;;;;;;22.80;39.50;;;;;;5035247;28;19932;-59
2024/02/13 07:05:16;;;;;;;;;;;22.90;39.60;;;;;;5060862;28;20300;-58
2024/02/13 07:07:43;;;;;;;;;;;22.90;39.60;;;;;;5060230;28;20422;-59
2024/02/13 07:10:14;;;;;;;;;;;22.90;39.60;;;;;;5063695;28;20422;-59
2024/02/13 07:12:43;;;;;;;;;;;22.90;39.60;;;;;;5061301;28;20011;-58
2024/02/13 07:15:11;;;;;;;;;;;22.90;39.60;;;;;;5063965;28;19925;-59
2024/02/13 07:17:38;;;;;;;;;;;23.00;39.50;;;;;;5065623;28;19942;-60
2024/02/13 07:20:10;;;;;;;;;;;23.00;39.40;;;;;;5062520;28;19980;-60
2024/02/13 07:22:39;;;;;;;;;;;23.00;39.40;;;;;;5059604;28;19936;-60
2024/02/13 07:25:08;;;;;;;;;;;23.00;39.40;;;;;;5056364;28;19933;-60
2024/02/13 07:27:36;;;;;;;;;;;23.00;39.30;;;;;;5063725;28;19955;-60
2024/02/13 07:30:06;;;;;;;;;;;23.00;39.30;;;;;;5059916;28;20541;-60
2024/02/13 07:32:34;;;;;;;;;;;23.00;39.40;;;;;;5058740;28;20407;-59
2024/02/13 07:35:04;;;;;;;;;;;23.00;39.30;;;;;;5045171;28;19939;-59
2024/02/13 07:37:31;;;;;;;;;;;23.00;39.30;;;;;;5061638;28;20011;-59
2024/02/13 07:39:59;;;;;;;;;;;23.00;39.20;;;;;;5054306;28;19990;-58
2024/02/13 07:42:28;;;;;;;;;;;23.10;39.50;;;;;;5058780;28;20329;-59
2024/02/13 07:44:55;;;;;;;;;;;23.10;39.70;;;;;;5058540;28;19925;-59
2024/02/13 07:47:22;;;;;;;;;;;23.10;39.90;;;;;;5060658;28;19979;-59
2024/02/13 07:49:50;;;;;;;;;;;23.10;39.90;;;;;;5062399;28;19932;-59
2024/02/13 07:52:17;;;;;;;;;;;23.20;39.80;;;;;;5063116;28;19933;-57
2024/02/13 07:54:45;;;;;;;;;;;23.20;39.60;;;;;;5058725;28;20308;-58
2024/02/13 07:57:16;;;;;;;;;;;23.30;39.50;;;;;;5056824;28;19970;-57
2024/02/13 07:59:44;;;;;;;;;;;23.30;39.50;;;;;;5059017;28;19932;-59
2024/02/13 08:02:12;;;;;;;;;;;23.30;39.50;;;;;;5059657;28;19930;-58
2024/02/13 08:04:39;;;;;;;;;;;23.30;40.10;;;;;;5056420;28;19933;-58
2024/02/13 08:07:08;;;;;;;;;;;23.40;39.70;;;;;;5062160;28;19971;-58
2024/02/13 08:09:35;;;;;;;;;;;23.40;39.80;;;;;;5058190;28;19939;-58
2024/02/13 08:12:06;;;;;;;;;;;23.50;39.80;;;;;;5059618;28;20027;-58
2024/02/13 08:14:34;;;;;;;;;;;23.50;39.70;;;;;;5058625;28;19928;-60
2024/02/13 08:17:06;;;;;;;;;;;23.60;39.70;;;;;;5060286;28;19936;-58
2024/02/13 08:19:34;;;;;;;;;;;23.70;39.60;;;;;;5042343;28;19932;-59
2024/02/13 08:22:01;;;;;;;;;;;23.80;39.50;;;;;;5057920;28;19925;-59
2024/02/13 08:24:29;;;;;;;;;;;23.80;39.40;;;;;;5061183;28;19932;-59
2024/02/13 08:26:56;;;;;;;;;;;23.90;39.00;;;;;;5062699;28;19924;-59
2024/02/13 08:29:23;;;;;;;;;;;23.90;38.70;;;;;;5060383;28;20666;-59
2024/02/13 08:31:50;;;;;;;;;;;24.00;38.40;;;;;;5063024;28;19978;-60
2024/02/13 08:34:18;;;;;;;;;;;24.00;38.20;;;;;;5063098;28;19946;-60
2024/02/13 08:36:46;;;;;;;;;;;24.10;38.20;;;;;;5045115;28;20007;-60
2024/02/13 08:39:13;;;;;;;;;;;24.10;38.00;;;;;;5061284;28;19979;-60
2024/02/13 08:41:40;;;;;;;;;;;24.10;37.70;;;;;;5061256;28;20305;-60
2024/02/13 08:44:10;;;;;;;;;;;24.10;37.50;;;;;;5064541;28;19952;-59
2024/02/13 08:46:37;;;;;;;;;;;24.20;37.40;;;;;;5066527;28;20293;-58
2024/02/13 08:49:04;;;;;;;;;;;24.20;37.10;;;;;;5065589;28;19928;-58
2024/02/13 08:51:32;;;;;;;;;;;24.10;37.20;;;;;;5065201;28;19940;-58
2024/02/13 08:54:04;;;;;;;;;;;24.20;37.50;;;;;;5063271;28;19932;-58
2024/02/13 08:56:32;;;;;;;;;;;24.20;37.40;;;;;;5062494;28;19924;-59
2024/02/13 08:59:00;;;;;;;;;;;24.10;37.50;;;;;;5065696;28;19964;-59
2024/02/13 09:01:29;;;;;;;;;;;24.10;37.50;;;;;;5062723;28;19932;-58
2024/02/13 09:03:57;;;;;;;;;;;24.10;37.50;;;;;;5065730;28;19928;-59
2024/02/13 09:06:24;;;;;;;;;;;24.10;37.60;;;;;;5064105;28;19959;-59
2024/02/13 09:08:51;;;;;;;;;;;24.20;37.70;;;;;;5064770;28;19939;-59
2024/02/13 09:11:18;;;;;;;;;;;24.20;37.70;;;;;;5064304;28;19925;-58
2024/02/13 09:13:46;;;;;;;;;;;24.20;37.60;;;;;;5065104;28;19939;-58
2024/02/13 09:16:13;;;;;;;;;;;24.20;37.60;;;;;;5062910;28;19937;-59
2024/02/13 09:18:40;;;;;;;;;;;24.10;37.60;;;;;;5065887;28;19932;-58
2024/02/13 09:21:10;;;;;;;;;;;24.10;38.30;;;;;;5065648;28;20010;-58
2024/02/13 09:23:37;;;;;;;;;;;24.10;37.90;;;;;;5047954;28;19924;-58
2024/02/13 09:26:04;;;;;;;;;;;24.10;37.90;;;;;;5065506;28;19979;-59
2024/02/13 09:28:31;;;;;;;;;;;24.20;37.90;;;;;;5066601;28;19939;-58
2024/02/13 09:30:58;;;;;;;;;;;24.20;37.90;;;;;;5065742;28;19925;-58
2024/02/13 09:33:26;;;;;;;;;;;24.20;37.90;;;;;;5066825;28;19933;-58
2024/02/13 09:35:54;;;;;;;;;;;24.20;37.70;;;;;;5049512;28;19980;-59
2024/02/13 09:38:21;;;;;;;;;;;24.20;37.70;;;;;;5067591;28;20385;-59
2024/02/13 09:40:49;;;;;;;;;;;24.20;37.80;;;;;;5068026;28;19932;-58
2024/02/13 09:43:18;;;;;;;;;;;24.20;37.90;;;;;;5065712;28;19932;-58
2024/02/13 09:45:45;;;;;;;;;;;24.30;38.50;;;;;;5045905;28;20015;-58
2024/02/13 09:48:23;;;;;;;;;;;24.30;37.90;;;;;;5067828;28;19924;-58
2024/02/13 09:50:52;;;;;;;;;;;24.30;37.90;;;;;;5064583;28;20411;-58
2024/02/13 09:53:26;;;;;;;;;;;24.30;37.90;;;;;;5064417;28;19932;-58
2024/02/13 09:55:57;;;;;;;;;;;24.30;37.90;;;;;;5063206;28;19928;-58
2024/02/13 09:58:25;;;;;;;;;;;24.30;37.80;;;;;;5062437;28;19928;-58
2024/02/13 10:00:53;;;;;;;;;;;24.30;38.20;;;;;;5057227;28;20403;-58
2024/02/13 10:03:26;;;;;;;;;;;24.30;37.60;;;;;;5065612;28;20014;-58
2024/02/13 10:05:53;;;;;;;;;;;24.30;37.50;;;;;;5062137;28;19979;-59
2024/02/13 10:08:26;;;;;;;;;;;24.40;37.40;;;;;;5067167;28;19958;-58
2024/02/13 10:11:00;;;;;;;;;;;24.40;37.40;;;;;;5066734;28;19939;-59
2024/02/13 10:13:31;;;;;;;;;;;24.40;37.30;;;;;;5067317;28;19986;-59
2024/02/13 10:15:58;;;;;;;;;;;24.40;37.30;;;;;;5067877;28;20340;-59
2024/02/13 10:18:25;;;;;;;;;;;24.50;37.10;;;;;;5069760;28;19924;-59
2024/02/13 10:20:52;;;;;;;;;;;24.40;37.00;;;;;;5067725;28;19935;-59
2024/02/13 10:23:23;;;;;;;;;;;24.50;37.00;;;;;;5062013;28;19939;-59
2024/02/13 10:25:50;;;;;;;;;;;24.50;36.90;;;;;;5065190;28;19993;-59
2024/02/13 10:28:19;;;;;;;;;;;24.50;36.90;;;;;;5046631;28;19924;-59
2024/02/13 10:30:52;;;;;;;;;;;24.50;36.80;;;;;;5044808;28;19929;-58
2024/02/13 10:33:19;;;;;;;;;;;24.50;36.70;;;;;;5065145;28;19925;-59
2024/02/13 10:35:52;;;;;;;;;;;24.50;36.60;;;;;;5058843;28;20441;-59
2024/02/13 10:38:25;;;;;;;;;;;24.50;36.50;;;;;;5060580;28;19941;-60
2024/02/13 10:40:54;;;;;;;;;;;24.50;36.50;;;;;;5063147;28;20062;-61
2024/02/13 10:43:21;;;;;;;;;;;24.50;36.50;;;;;;5060362;28;19936;-59
2024/02/13 10:45:52;;;;;;;;;;;24.60;36.50;;;;;;5064429;28;19955;-59
2024/02/13 10:48:29;;;;;;;;;;;24.60;36.60;;;;;;5059413;28;19932;-60
2024/02/13 10:50:57;;;;;;;;;;;24.50;36.40;;;;;;5064349;28;20284;-59
2024/02/13 10:53:25;;;;;;;;;;;24.60;36.50;;;;;;5059719;28;20338;-59
2024/02/13 10:55:55;;;;;;;;;;;24.60;36.50;;;;;;5062953;28;19924;-58
2024/02/13 10:58:22;;;;;;;;;;;24.60;36.60;;;;;;5061963;28;19925;-59
2024/02/13 11:00:58;;;;;;;;;;;24.60;36.40;;;;;;5066261;28;19939;-58
2024/02/13 11:03:26;;;;;;;;;;;24.60;36.40;;;;;;5060579;28;19932;-58
2024/02/13 11:05:53;;;;;;;;;;;24.60;36.40;;;;;;5063506;28;20401;-59
2024/02/13 11:08:23;;;;;;;;;;;24.70;36.50;;;;;;5065458;28;19970;-58
2024/02/13 11:10:52;;;;;;;;;;;24.70;36.50;;;;;;5064150;28;19935;-57
2024/02/13 11:13:21;;;;;;;;;;;24.70;36.40;;;;;;5046265;28;20340;-60
2024/02/13 11:15:49;;;;;;;;;;;24.70;36.00;;;;;;5064702;28;20467;-59
2024/02/13 11:18:16;;;;;;;;;;;24.80;35.60;;;;;;5048288;28;19924;-59
2024/02/13 11:20:43;;;;;;;;;;;24.90;35.30;;;;;;5059073;28;19932;-57
2024/02/13 11:23:15;;;;;;;;;;;24.90;35.00;;;;;;5063231;28;20349;-58
2024/02/13 11:25:55;;;;;;;;;;;24.90;34.60;;;;;;5066563;28;19928;-58
2024/02/13 11:28:22;;;;;;;;;;;24.90;34.40;;;;;;5061653;28;20300;-59
2024/02/13 11:30:49;;;;;;;;;;;24.90;34.10;;;;;;5068566;28;19924;-59
2024/02/13 11:33:19;;;;;;;;;;;24.90;33.90;;;;;;5064571;28;20400;-58
2024/02/13 11:35:52;;;;;;;;;;;24.80;33.70;;;;;;5064759;28;19924;-58
2024/02/13 11:38:20;;;;;;;;;;;24.80;33.60;;;;;;5066318;28;19933;-58
2024/02/13 11:40:48;;;;;;;;;;;24.70;33.20;;;;;;5060242;28;19925;-58
2024/02/13 11:43:24;;;;;;;;;;;24.70;32.80;;;;;;5062679;28;19928;-57
2024/02/13 11:45:51;;;;;;;;;;;24.70;32.90;;;;;;5062851;28;19925;-57
2024/02/13 11:48:20;;;;;;;;;;;24.70;32.80;;;;;;5068494;28;19956;-58
2024/02/13 11:50:47;;;;;;;;;;;24.70;32.60;;;;;;5065490;28;19950;-58
2024/02/13 11:53:17;;;;;;;;;;;24.60;32.40;;;;;;5061699;28;19925;-59
2024/02/13 11:55:46;;;;;;;;;;;24.50;32.20;;;;;;5067501;28;20304;-59
2024/02/13 11:58:19;;;;;;;;;;;24.50;32.30;;;;;;5060915;28;19932;-60
2024/02/13 12:01:00;;;;;;;;;;;24.50;32.40;;;;;;5063981;28;19928;-60
2024/02/13 12:03:28;;;;;;;;;;;24.50;32.20;;;;;;5059082;28;19933;-60
2024/02/13 12:05:56;;;;;;;;;;;24.50;32.50;;;;;;5062235;28;20008;-59
2024/02/13 12:08:24;;;;;;;;;;;24.50;32.80;;;;;;5062861;28;20385;-59
2024/02/13 12:10:54;;;;;;;;;;;24.50;33.00;;;;;;5065815;28;19925;-59
2024/02/13 12:13:22;;;;;;;;;;;24.50;33.20;;;;;;5061584;28;20439;-59
2024/02/13 12:15:49;;;;;;;;;;;24.50;33.30;;;;;;5061378;28;20181;-59
2024/02/13 12:18:19;;;;;;;;;;;24.50;33.70;;;;;;5042054;28;19928;-58
2024/02/13 12:20:49;;;;;;;;;;;24.50;33.60;;;;;;5046748;28;20224;-60
2024/02/13 12:23:16;;;;;;;;;;;24.60;33.80;;;;;;5049882;28;19932;-59
2024/02/13 12:25:46;;;;;;;;;;;24.50;33.90;;;;;;5064924;28;20385;-59
2024/02/13 12:28:13;;;;;;;;;;;24.60;33.90;;;;;;5061701;28;19925;-59
2024/02/13 12:30:45;;;;;;;;;;;24.50;33.90;;;;;;5065813;28;19932;-59
2024/02/13 12:33:20;;;;;;;;;;;24.50;34.00;;;;;;5045322;28;20335;-59
2024/02/13 12:36:00;;;;;;;;;;;24.50;34.00;;;;;;5066894;28;19979;-59
2024/02/13 12:38:27;;;;;;;;;;;24.50;34.10;;;;;;5061312;28;19978;-59
2024/02/13 12:40:57;;;;;;;;;;;24.50;34.10;;;;;;5064211;28;19928;-59
2024/02/13 12:43:27;;;;;;;;;;;24.50;34.20;;;;;;5063684;28;19928;-57
2024/02/13 12:45:55;;;;;;;;;;;24.50;34.20;;;;;;5058690;28;19935;-57
2024/02/13 12:48:22;;;;;;;;;;;24.50;34.20;;;;;;5048838;28;20328;-57
2024/02/13 12:50:51;;;;;;;;;;;24.50;34.30;;;;;;5067362;28;19924;-58
2024/02/13 12:53:21;;;;;;;;;;;24.50;34.20;;;;;;5059181;28;19931;-57
2024/02/13 12:55:49;;;;;;;;;;;24.50;34.20;;;;;;5062368;28;20001;-57
2024/02/13 12:58:17;;;;;;;;;;;24.50;34.10;;;;;;5057728;28;19939;-57
2024/02/13 13:00:47;;;;;;;;;;;24.50;34.10;;;;;;5063529;28;19951;-58
2024/02/13 13:03:15;;;;;;;;;;;24.40;34.10;;;;;;5064594;28;19933;-57
2024/02/13 13:05:43;;;;;;;;;;;24.40;34.20;;;;;;5068974;28;20014;-57
2024/02/13 13:08:14;;;;;;;;;;;24.40;34.10;;;;;;5063162;28;20240;-57
2024/02/13 13:10:43;;;;;;;;;;;24.40;34.10;;;;;;5061483;28;19937;-59
2024/02/13 13:13:13;;;;;;;;;;;24.40;34.10;;;;;;5064342;28;19924;-58
2024/02/13 13:15:41;;;;;;;;;;;24.40;34.20;;;;;;5066144;28;19967;-59
2024/02/13 13:18:12;;;;;;;;;;;24.50;34.30;;;;;;5048684;28;20043;-58
2024/02/13 13:20:45;;;;;;;;;;;24.40;34.30;;;;;;5061958;28;19972;-57
2024/02/13 13:23:15;;;;;;;;;;;24.50;34.30;;;;;;5062092;28;19928;-57
2024/02/13 13:25:45;;;;;;;;;;;24.50;34.20;;;;;;5062547;28;19929;-58
2024/02/13 13:28:16;;;;;;;;;;;24.50;34.20;;;;;;5061988;28;19935;-58
2024/02/13 13:30:54;;;;;;;;;;;24.50;34.20;;;;;;5060452;28;19928;-60
2024/02/13 13:33:22;;;;;;;;;;;24.50;34.10;;;;;;5064808;28;20381;-62
2024/02/13 13:35:51;;;;;;;;;;;24.50;34.20;;;;;;5065940;28;19924;-60
2024/02/13 13:38:21;;;;;;;;;;;24.50;34.30;;;;;;5061992;28;19938;-60
2024/02/13 13:40:49;;;;;;;;;;;24.50;34.20;;;;;;5064266;28;19924;-64
2024/02/13 13:43:16;;;;;;;;;;;24.40;34.20;;;;;;5062103;28;19931;-59
2024/02/13 13:45:54;;;;;;;;;;;24.50;34.70;;;;;;5059788;28;20297;-62
2024/02/13 13:48:23;;;;;;;;;;;24.50;34.00;;;;;;5062250;28;19931;-61
2024/02/13 13:50:52;;;;;;;;;;;24.50;34.60;;;;;;5065758;28;19936;-63
2024/02/13 13:53:21;;;;;;;;;;;24.50;34.00;;;;;;5041900;28;19925;-63
2024/02/13 13:55:48;;;;;;;;;;;24.50;34.00;;;;;;5061325;28;19932;-69
2024/02/13 13:58:15;;;;;;;;;;;24.40;33.80;;;;;;5065126;28;19924;-66
2024/02/13 14:00:46;;;;;;;;;;;24.50;33.90;;;;;;5065275;28;20408;-59
2024/02/13 14:03:14;;;;;;;;;;;24.50;33.80;;;;;;5060572;28;19928;-58
2024/02/13 14:05:44;;;;;;;;;;;24.40;33.60;;;;;;5055931;28;20002;-57
2024/02/13 14:08:11;;;;;;;;;;;24.50;33.70;;;;;;5062028;28;19936;-58
2024/02/13 14:10:39;;;;;;;;;;;24.50;33.80;;;;;;5060715;28;19932;-59
2024/02/13 14:13:08;;;;;;;;;;;24.40;33.80;;;;;;5050419;28;19932;-60
2024/02/13 14:15:37;;;;;;;;;;;24.50;33.90;;;;;;5069212;28;19932;-59
2024/02/13 14:18:05;;;;;;;;;;;24.50;33.80;;;;;;5059190;28;19971;-59
2024/02/13 14:20:34;;;;;;;;;;;24.50;33.70;;;;;;5060198;28;19925;-59
2024/02/13 14:23:02;;;;;;;;;;;24.50;33.60;;;;;;5060485;28;19924;-59
2024/02/13 14:25:30;;;;;;;;;;;24.50;33.60;;;;;;5054088;28;20370;-59
2024/02/13 14:27:57;;;;;;;;;;;24.50;33.50;;;;;;5061122;28;20404;-59